createdAt,value
2022-09-15T00:01:01.008Z,98651.06
2022-09-15T00:05:02.885Z,98649.91
2022-09-15T00:09:04.907Z,98650.41
2022-09-15T00:13:06.500Z,98656.00
2022-09-15T00:17:08.186Z,98649.59
2022-09-15T00:21:16.472Z,98647.13
2022-09-15T00:25:18.416Z,98642.72
2022-09-15T00:29:19.998Z,98639.41
2022-09-15T00:33:22.828Z,98632.72
2022-09-15T00:37:24.682Z,98627.81
2022-09-15T00:41:26.587Z,98633.53
2022-09-15T00:45:28.353Z,98631.88
2022-09-15T00:49:33.753Z,98626.31
2022-09-15T00:53:35.760Z,98629.09
2022-09-15T00:57:42.704Z,98619.91
2022-09-15T01:01:47.231Z,98622.03
2022-09-15T01:05:54.601Z,98619.75
2022-09-15T01:09:59.894Z,98622.69
2022-09-15T01:14:02.121Z,98617.94
2022-09-15T01:18:19.335Z,98620.72
2022-09-15T01:22:55.463Z,98625.19
2022-09-15T01:27:24.085Z,98619.75
2022-09-15T01:31:36.643Z,98611.91
2022-09-15T01:36:11.318Z,98613.53
2022-09-15T01:40:15.586Z,98621.22
2022-09-15T01:44:24.899Z,98602.06
2022-09-15T01:48:28.304Z,98602.88
2022-09-15T01:52:31.163Z,98598.94
2022-09-15T01:56:32.936Z,98592.84
2022-09-15T02:00:41.713Z,98596.16
2022-09-15T02:04:55.398Z,98594.31
2022-09-15T02:09:02.660Z,98590.06
2022-09-15T02:13:18.008Z,98584.63
2022-09-15T02:17:21.334Z,98589.59
2022-09-15T02:21:36.395Z,98584.03
2022-09-15T02:25:45.327Z,98579.72
2022-09-15T02:29:48.809Z,98588.09
2022-09-15T02:33:59.155Z,98580.22
2022-09-15T02:38:02.546Z,98592.19
2022-09-15T02:42:04.435Z,98585.00
2022-09-15T02:46:07.012Z,98597.63
2022-09-15T02:50:11.854Z,98593.34
2022-09-15T02:54:13.840Z,98603.03
2022-09-15T02:58:17.150Z,98602.72
2022-09-15T03:02:21.535Z,98613.69
2022-09-15T03:06:26.464Z,98607.94
2022-09-15T03:10:29.169Z,98607.28
2022-09-15T03:14:32.641Z,98618.56
2022-09-15T03:18:34.571Z,98623.16
2022-09-15T03:22:36.184Z,98627.41
2022-09-15T03:26:37.838Z,98639.19
2022-09-15T03:30:39.408Z,98631.31
2022-09-15T03:34:41.546Z,98637.69
2022-09-15T03:38:43.087Z,98641.94
2022-09-15T03:42:44.636Z,98655.34
2022-09-15T03:46:46.355Z,98645.03
2022-09-15T03:50:48.498Z,98646.66
2022-09-15T03:54:50.111Z,98653.03
2022-09-15T03:58:52.251Z,98655.47
2022-09-15T04:02:56.635Z,98649.22
2022-09-15T04:06:58.198Z,98657.53
2022-09-15T04:11:04.465Z,98657.19
2022-09-15T04:15:07.623Z,98651.75
2022-09-15T04:19:09.307Z,98661.75
2022-09-15T04:23:11.954Z,98669.72
2022-09-15T04:27:14.076Z,98671.50
2022-09-15T04:31:16.918Z,98674.94
2022-09-15T04:35:18.599Z,98687.53
2022-09-15T04:39:20.289Z,98679.16
2022-09-15T04:43:22.381Z,98693.50
2022-09-15T04:47:24.112Z,98708.03
2022-09-15T04:51:27.281Z,98701.59
2022-09-15T04:55:32.580Z,98711.50
2022-09-15T04:59:34.448Z,98717.59
2022-09-15T05:03:37.741Z,98724.94
2022-09-15T05:07:39.351Z,98726.09
2022-09-15T05:11:41.153Z,98729.28
2022-09-15T05:15:42.808Z,98741.13
2022-09-15T05:19:44.385Z,98742.19
2022-09-15T05:23:46.682Z,98749.38
2022-09-15T05:27:48.324Z,98757.81
2022-09-15T05:31:50.039Z,98756.47
2022-09-15T05:35:59.964Z,98764.63
2022-09-15T05:40:05.172Z,98760.91
2022-09-15T05:44:11.614Z,98774.25
2022-09-15T05:48:13.218Z,98777.34
2022-09-15T05:52:14.764Z,98781.03
2022-09-15T05:56:17.529Z,98787.63
2022-09-15T06:00:19.172Z,98793.19
2022-09-15T06:04:20.795Z,98794.84
2022-09-15T06:08:22.387Z,98803.72
2022-09-15T06:12:24.144Z,98806.16
2022-09-15T06:16:26.764Z,98819.75
2022-09-15T06:20:28.382Z,98822.22
2022-09-15T06:24:30.015Z,98826.03
2022-09-15T06:28:31.623Z,98826.75
2022-09-15T06:32:33.955Z,98826.44
2022-09-15T06:36:36.884Z,98830.03
2022-09-15T06:40:38.419Z,98835.31
2022-09-15T06:44:39.991Z,98831.78
2022-09-15T06:48:45.255Z,98834.16
2022-09-15T06:52:49.616Z,98837.66
2022-09-15T06:56:51.196Z,98837.25
2022-09-15T07:00:52.853Z,98836.53
2022-09-15T07:04:54.435Z,98846.78
2022-09-15T07:08:56.738Z,98852.63
2022-09-15T07:12:59.076Z,98859.91
2022-09-15T07:17:00.605Z,98865.56
2022-09-15T07:21:07.605Z,98866.78
2022-09-15T07:25:09.380Z,98867.38
2022-09-15T07:29:11.050Z,98869.63
2022-09-15T07:33:13.518Z,98863.25
2022-09-15T07:37:16.258Z,98870.50
2022-09-15T07:41:21.187Z,98872.59
2022-09-15T07:45:23.037Z,98884.66
2022-09-15T07:49:24.595Z,98899.03
2022-09-15T07:53:29.952Z,98902.56
2022-09-15T07:57:31.545Z,98904.06
2022-09-15T08:01:33.339Z,98911.47
2022-09-15T08:05:39.397Z,98916.84
2022-09-15T08:09:42.874Z,98920.22
2022-09-15T08:13:45.113Z,98912.31
2022-09-15T08:17:46.745Z,98919.09
2022-09-15T08:21:48.279Z,98927.03
2022-09-15T08:25:51.656Z,98932.84
2022-09-15T08:29:53.415Z,98937.63
2022-09-15T08:33:55.959Z,98942.44
2022-09-15T08:37:57.691Z,98940.66
2022-09-15T08:42:02.101Z,98951.50
2022-09-15T08:46:06.870Z,98948.44
2022-09-15T08:50:35.747Z,98947.31
2022-09-15T08:54:38.701Z,98951.75
2022-09-15T08:58:40.657Z,98949.63
2022-09-15T09:03:05.374Z,98956.69
2022-09-15T09:07:09.919Z,98954.22
2022-09-15T09:11:23.369Z,98965.91
2022-09-15T09:15:41.427Z,98957.06
2022-09-15T09:20:14.083Z,98960.84
2022-09-15T09:24:18.019Z,98950.00
2022-09-15T09:28:42.341Z,98960.31
2022-09-15T09:32:50.340Z,98963.09
2022-09-15T09:36:58.736Z,98981.09
2022-09-15T09:41:02.497Z,98989.78
2022-09-15T09:45:05.957Z,98977.84
2022-09-15T09:49:24.068Z,98974.13
2022-09-15T09:53:36.470Z,98976.44
2022-09-15T09:57:40.683Z,98975.94
2022-09-15T10:02:05.246Z,98972.75
2022-09-15T10:06:11.053Z,98982.91
2022-09-15T10:10:32.322Z,98978.63
2022-09-15T10:14:40.321Z,98979.25
2022-09-15T10:18:41.940Z,98982.72
2022-09-15T10:22:44.090Z,98989.72
2022-09-15T10:26:46.007Z,98988.28
2022-09-15T10:31:10.789Z,98981.91
2022-09-15T10:35:15.115Z,98972.34
2022-09-15T10:39:59.645Z,98982.66
2022-09-15T10:44:28.951Z,98984.75
2022-09-15T10:48:54.103Z,98995.41
2022-09-15T10:53:11.394Z,98996.22
2022-09-15T10:57:31.112Z,98997.53
2022-09-15T11:01:59.093Z,98987.94
2022-09-15T11:06:07.157Z,98989.34
2022-09-15T11:10:37.385Z,98985.81
2022-09-15T11:15:11.424Z,98985.81
2022-09-15T11:19:22.700Z,98990.69
2022-09-15T11:23:32.829Z,98984.34
2022-09-15T11:27:41.151Z,98988.50
2022-09-15T11:31:47.867Z,98988.88
2022-09-15T11:36:15.759Z,98986.44
2022-09-15T11:40:23.531Z,98980.63
2022-09-15T11:44:31.443Z,98971.31
2022-09-15T11:48:45.504Z,98977.91
2022-09-15T11:52:57.756Z,98985.59
2022-09-15T11:57:00.284Z,98991.66
2022-09-15T12:01:14.408Z,98990.78
2022-09-15T12:05:28.439Z,98994.59
2022-09-15T12:09:30.937Z,99000.09
2022-09-15T12:13:33.185Z,99008.81
2022-09-15T12:17:44.696Z,99009.59
2022-09-15T12:22:07.165Z,98997.72
2022-09-15T12:26:14.724Z,99005.34
2022-09-15T12:30:38.865Z,99006.84
2022-09-15T12:34:40.456Z,99005.56
2022-09-15T12:38:48.043Z,99010.88
2022-09-15T12:42:49.924Z,99015.69
2022-09-15T12:46:56.161Z,99015.22
2022-09-15T12:51:12.374Z,99017.91
2022-09-15T12:55:23.919Z,99006.00
2022-09-15T12:59:35.784Z,99005.53
2022-09-15T13:08:01.911Z,99010.50
2022-09-15T13:12:05.723Z,99016.47
2022-09-15T13:16:14.504Z,99023.59
2022-09-15T13:20:26.109Z,99022.72
2022-09-15T13:24:59.118Z,99028.41
2022-09-15T13:29:06.412Z,99029.81
2022-09-15T13:38:29.106Z,99030.13
2022-09-15T13:42:42.324Z,99034.56
2022-09-15T13:47:02.227Z,99033.03
2022-09-15T13:51:29.887Z,99029.94
2022-09-15T13:55:36.809Z,99035.97
2022-09-15T13:59:38.433Z,99039.34
2022-09-15T14:03:42.534Z,99033.97
2022-09-15T14:07:59.171Z,99034.47
2022-09-15T14:12:09.209Z,99033.06
2022-09-15T14:16:25.452Z,99037.00
2022-09-15T14:20:27.085Z,99027.34
2022-09-15T14:24:31.095Z,99027.28
2022-09-15T14:28:32.957Z,99028.81
2022-09-15T14:32:39.965Z,99024.50
2022-09-15T14:36:43.600Z,99032.56
2022-09-15T14:40:52.276Z,99030.03
2022-09-15T14:49:16.444Z,99026.03
2022-09-15T14:53:23.144Z,99015.72
2022-09-15T14:57:31.139Z,99019.59
2022-09-15T15:01:38.121Z,99012.44
2022-09-15T15:05:45.981Z,99015.91
2022-09-15T15:09:56.796Z,99012.19
2022-09-15T15:13:58.957Z,99017.59
2022-09-15T15:18:00.871Z,99014.91
2022-09-15T15:22:11.639Z,99015.16
2022-09-15T15:26:34.328Z,99007.81
2022-09-15T15:30:47.085Z,99012.69
2022-09-15T15:34:51.582Z,99014.13
2022-09-15T15:38:55.785Z,99020.09
2022-09-15T15:43:04.192Z,99021.31
2022-09-15T15:47:14.392Z,99021.50
2022-09-15T15:51:18.135Z,99025.13
2022-09-15T15:55:26.794Z,99026.13
2022-09-15T15:59:28.403Z,99027.59
2022-09-15T16:03:29.957Z,99019.72
2022-09-15T16:07:33.425Z,99023.00
2022-09-15T16:11:35.220Z,99026.28
2022-09-15T16:15:44.137Z,99034.84
2022-09-15T16:19:45.717Z,99033.16
2022-09-15T16:23:47.412Z,99034.47
2022-09-15T16:27:48.947Z,99036.59
2022-09-15T16:31:50.636Z,99037.88
2022-09-15T16:36:03.806Z,99042.44
2022-09-15T16:40:06.125Z,99042.56
2022-09-15T16:44:17.629Z,99039.38
2022-09-15T16:48:19.580Z,99043.28
2022-09-15T16:52:21.172Z,99045.50
2022-09-15T16:56:27.131Z,99044.81
2022-09-15T17:00:30.555Z,99045.47
2022-09-15T17:04:34.157Z,99051.56
2022-09-15T17:08:35.733Z,99049.56
2022-09-15T17:12:38.337Z,99049.91
2022-09-15T17:16:41.138Z,99056.13
2022-09-15T17:20:43.378Z,99053.28
2022-09-15T17:24:44.945Z,99055.38
2022-09-15T17:28:47.169Z,99050.06
2022-09-15T17:32:49.576Z,99059.50
2022-09-15T17:36:51.218Z,99062.34
2022-09-15T17:40:55.337Z,99061.78
2022-09-15T17:44:57.044Z,99056.41
2022-09-15T17:48:58.691Z,99055.53
2022-09-15T17:53:00.746Z,99060.19
2022-09-15T17:57:02.263Z,99060.44
2022-09-15T18:01:05.135Z,99060.84
2022-09-15T18:05:07.189Z,99059.66
2022-09-15T18:09:08.884Z,99065.66
2022-09-15T18:13:15.738Z,99069.34
2022-09-15T18:17:19.167Z,99068.34
2022-09-15T18:21:28.686Z,99078.44
2022-09-15T18:25:40.140Z,99085.47
2022-09-15T18:29:43.522Z,99070.69
2022-09-15T18:33:45.172Z,99079.91
2022-09-15T18:37:48.813Z,99079.91
2022-09-15T18:41:50.630Z,99086.28
2022-09-15T18:45:55.101Z,99096.88
2022-09-15T18:49:58.786Z,99100.81
2022-09-15T18:54:01.364Z,99105.53
2022-09-15T18:58:04.492Z,99107.41
2022-09-15T19:02:11.871Z,99119.06
2022-09-15T19:06:15.563Z,99120.78
2022-09-15T19:10:19.216Z,99127.22
2022-09-15T19:14:20.954Z,99126.88
2022-09-15T19:18:22.889Z,99132.06
2022-09-15T19:22:24.581Z,99136.16
2022-09-15T19:26:28.910Z,99141.13
2022-09-15T19:30:30.473Z,99138.84
2022-09-15T19:34:32.320Z,99142.44
2022-09-15T19:38:35.759Z,99154.19
2022-09-15T19:42:38.999Z,99155.34
2022-09-15T19:46:40.607Z,99154.81
2022-09-15T19:50:42.205Z,99144.22
2022-09-15T19:54:43.997Z,99152.34
2022-09-15T19:58:46.519Z,99153.16
2022-09-15T20:02:48.582Z,99151.53
2022-09-15T20:06:50.178Z,99151.81
2022-09-15T20:10:51.788Z,99154.41
2022-09-15T20:14:53.633Z,99153.88
2022-09-15T20:18:56.538Z,99155.56
2022-09-15T20:22:58.358Z,99154.19
2022-09-15T20:27:00.209Z,99152.84
2022-09-15T20:31:09.312Z,99164.06
2022-09-15T20:35:10.900Z,99165.81
2022-09-15T20:39:15.114Z,99168.66
2022-09-15T20:43:21.104Z,99171.25
2022-09-15T20:47:22.776Z,99178.53
2022-09-15T20:51:33.612Z,99178.31
2022-09-15T20:55:35.473Z,99181.22
2022-09-15T20:59:38.504Z,99176.34
2022-09-15T21:03:41.622Z,99189.28
2022-09-15T21:07:43.192Z,99180.59
2022-09-15T21:11:45.116Z,99177.75
2022-09-15T21:15:58.462Z,99180.38
2022-09-15T21:20:00.010Z,99186.91
2022-09-15T21:24:04.577Z,99189.53
2022-09-15T21:28:06.472Z,99194.03
2022-09-15T21:32:08.123Z,99193.59
2022-09-15T21:36:15.547Z,99210.28
2022-09-15T21:40:18.667Z,99196.53
2022-09-15T21:44:20.449Z,99216.69
2022-09-15T21:48:22.370Z,99217.34
2022-09-15T21:52:25.080Z,99218.53
2022-09-15T21:56:28.731Z,99212.72
2022-09-15T22:00:30.274Z,99214.44
2022-09-15T22:04:32.037Z,99217.28
2022-09-15T22:08:33.597Z,99212.63
2022-09-15T22:12:35.143Z,99224.31
2022-09-15T22:16:38.895Z,99232.41
2022-09-15T22:20:40.770Z,99223.53
2022-09-15T22:24:42.535Z,99220.53
2022-09-15T22:28:44.600Z,99230.53
2022-09-15T22:32:46.364Z,99227.00
2022-09-15T22:36:48.093Z,99226.16
2022-09-15T22:40:49.790Z,99226.75
2022-09-15T22:44:51.408Z,99226.75
2022-09-15T22:48:54.482Z,99228.41
2022-09-15T22:52:57.534Z,99231.75
2022-09-15T22:56:59.248Z,99230.13
2022-09-15T23:01:09.970Z,99236.47
2022-09-15T23:05:11.537Z,99239.25
2022-09-15T23:09:13.108Z,99229.53
2022-09-15T23:13:14.776Z,99229.53
2022-09-15T23:17:16.341Z,99234.53
2022-09-15T23:21:18.934Z,99232.31
2022-09-15T23:25:20.509Z,99231.16
2022-09-15T23:29:24.870Z,99230.06
2022-09-15T23:33:28.386Z,99232.81
2022-09-15T23:37:29.985Z,99238.03
2022-09-15T23:41:31.652Z,99225.53
2022-09-15T23:45:33.180Z,99235.50
2022-09-15T23:49:34.826Z,99234.41
2022-09-15T23:53:36.429Z,99239.09
2022-09-15T23:57:38.087Z,99232.44
